Time;durP1;ratioP1;P1;durP2;ratioP2;P2;SDS_P1;SDS_P2;PMS_P1;PMS_P2;Temp;Humidity;BMP_temperature;BMP_pressure;BME280_temperature;BME280_humidity;BME280_pressure;Samples;Min_cycle;Max_cycle;Signal;HPM_P1;HPM_P2
2023/10/11 00:00:31;;;;;;;1.08;1.08;;;20.50;69.20;;;;;;5072970;28;20036;-77
2023/10/11 00:03:32;;;;;;;1.45;1.33;;;20.60;69.20;;;;;;5084823;28;20051;-77
2023/10/11 00:05:59;;;;;;;1.02;0.90;;;20.50;69.20;;;;;;5092286;28;20053;-77
2023/10/11 00:08:29;;;;;;;1.17;1.10;;;20.60;69.40;;;;;;5090364;28;20040;-78
2023/10/11 00:10:57;;;;;;;1.33;1.25;;;20.50;69.30;;;;;;5091350;28;20043;-77
2023/10/11 00:13:25;;;;;;;1.02;1.00;;;20.50;69.30;;;;;;5093165;28;20060;-78
2023/10/11 00:15:51;;;;;;;1.30;1.20;;;20.50;69.40;;;;;;5087480;28;20089;-77
2023/10/11 00:18:26;;;;;;;1.25;1.15;;;20.60;69.50;;;;;;5095913;28;20024;-77
2023/10/11 00:20:52;;;;;;;2.25;1.10;;;20.60;69.40;;;;;;5084621;28;20110;-77
2023/10/11 00:23:21;;;;;;;1.10;0.90;;;20.60;69.40;;;;;;5091208;28;20065;-77
2023/10/11 00:25:49;;;;;;;1.83;1.20;;;20.60;69.40;;;;;;5096465;28;20119;-77
2023/10/11 00:28:14;;;;;;;1.63;1.52;;;20.50;69.40;;;;;;5082510;28;20046;-77
2023/10/11 00:30:40;;;;;;;1.23;1.20;;;20.50;69.60;;;;;;5099579;28;20028;-77
2023/10/11 00:33:07;;;;;;;0.77;0.77;;;20.50;69.50;;;;;;5096776;28;20532;-77
2023/10/11 00:35:34;;;;;;;1.20;1.20;;;20.50;69.50;;;;;;5100406;28;20040;-77
2023/10/11 00:38:01;;;;;;;2.25;1.13;;;20.60;69.50;;;;;;5094962;28;20039;-77
2023/10/11 00:40:32;;;;;;;2.15;1.23;;;20.50;69.40;;;;;;5080174;28;20177;-77
2023/10/11 00:43:00;;;;;;;1.30;1.17;;;20.60;69.60;;;;;;5080193;28;20047;-77
2023/10/11 00:45:30;;;;;;;1.00;1.00;;;20.50;69.60;;;;;;5080569;28;20493;-77
2023/10/11 00:47:59;;;;;;;1.30;1.20;;;20.50;69.60;;;;;;5099817;28;20036;-77
2023/10/11 00:50:26;;;;;;;1.45;1.35;;;20.50;69.60;;;;;;5078591;28;20047;-78
2023/10/11 00:52:51;;;;;;;1.40;1.30;;;20.50;69.70;;;;;;5103810;28;20044;-78
2023/10/11 00:55:23;;;;;;;1.60;1.10;;;20.50;69.60;;;;;;5082457;28;20051;-77
2023/10/11 00:57:49;;;;;;;1.13;1.02;;;20.50;69.60;;;;;;5084960;28;20046;-77
2023/10/11 01:00:16;;;;;;;1.38;1.27;;;20.50;69.80;;;;;;5086843;28;20421;-77
2023/10/11 01:02:45;;;;;;;1.05;1.05;;;20.50;69.80;;;;;;5078099;28;20052;-77
2023/10/11 01:05:12;;;;;;;1.38;1.27;;;20.50;69.80;;;;;;5076714;28;20505;-77
2023/10/11 01:07:41;;;;;;;1.40;1.30;;;20.50;69.80;;;;;;5092816;28;20043;-77
2023/10/11 01:10:07;;;;;;;1.58;1.35;;;20.50;69.70;;;;;;5090160;28;20055;-77
2023/10/11 01:12:34;;;;;;;1.50;1.40;;;20.50;69.80;;;;;;5089145;28;20040;-78
2023/10/11 01:14:59;;;;;;;1.23;1.10;;;20.50;69.80;;;;;;5090748;28;20532;-78
2023/10/11 01:17:34;;;;;;;1.13;1.00;;;20.50;69.60;;;;;;5093492;28;20160;-78
2023/10/11 01:20:00;;;;;;;1.17;1.17;;;20.50;69.60;;;;;;5089292;28;20039;-77
2023/10/11 01:22:27;;;;;;;1.10;1.00;;;20.50;70.30;;;;;;5084548;28;20442;-77
2023/10/11 01:24:54;;;;;;;1.13;1.13;;;20.50;69.60;;;;;;5086047;28;20687;-78
2023/10/11 01:27:22;;;;;;;1.48;1.38;;;20.50;69.70;;;;;;5067827;28;20505;-78
2023/10/11 01:29:47;;;;;;;1.08;1.08;;;20.50;69.70;;;;;;5082662;28;20048;-77
2023/10/11 01:32:13;;;;;;;1.05;0.90;;;20.50;69.60;;;;;;5093465;28;20048;-77
2023/10/11 01:34:38;;;;;;;1.00;0.98;;;20.50;69.70;;;;;;5089069;28;20032;-77
2023/10/11 01:37:06;;;;;;;2.08;1.23;;;20.50;69.70;;;;;;5092587;28;20168;-77
2023/10/11 01:39:32;;;;;;;1.38;1.27;;;20.50;69.70;;;;;;5093058;28;20131;-77
2023/10/11 01:41:58;;;;;;;1.05;1.05;;;20.50;69.80;;;;;;5093645;28;20041;-78
2023/10/11 01:44:24;;;;;;;0.98;0.98;;;20.50;69.70;;;;;;5091448;28;20044;-77
2023/10/11 01:46:50;;;;;;;1.10;1.00;;;20.50;69.70;;;;;;5096276;28;20528;-77
2023/10/11 01:49:15;;;;;;;0.98;0.98;;;20.50;69.80;;;;;;5094518;28;20039;-77
2023/10/11 01:51:47;;;;;;;1.17;1.17;;;20.50;69.80;;;;;;5085666;28;20556;-77
2023/10/11 01:54:15;;;;;;;0.80;0.80;;;20.50;69.80;;;;;;5090125;28;20047;-78
2023/10/11 01:56:45;;;;;;;1.30;1.20;;;20.50;69.90;;;;;;5099067;28;20072;-78
2023/10/11 01:59:12;;;;;;;1.20;1.10;;;20.50;69.80;;;;;;5097552;28;20044;-78
2023/10/11 02:01:40;;;;;;;1.00;0.93;;;20.50;69.80;;;;;;5091905;28;20051;-78
2023/10/11 02:04:10;;;;;;;1.23;1.13;;;20.50;69.80;;;;;;5091607;28;20043;-77
2023/10/11 02:06:38;;;;;;;1.10;1.10;;;20.50;69.70;;;;;;5090466;28;20072;-78
2023/10/11 02:09:04;;;;;;;1.05;1.05;;;20.50;69.80;;;;;;5088888;28;20122;-77
2023/10/11 02:11:29;;;;;;;0.98;0.98;;;20.50;69.70;;;;;;5088718;28;20122;-77
2023/10/11 02:13:57;;;;;;;0.98;0.98;;;20.50;69.70;;;;;;5091554;28;20063;-77
2023/10/11 02:16:28;;;;;;;1.08;1.08;;;20.50;69.70;;;;;;5085262;28;20529;-78
2023/10/11 02:19:00;;;;;;;0.88;0.88;;;20.50;69.80;;;;;;5089931;28;20107;-77
2023/10/11 02:21:29;;;;;;;1.30;1.20;;;20.50;69.80;;;;;;5090505;28;20044;-77
2023/10/11 02:23:56;;;;;;;0.95;0.95;;;20.50;69.80;;;;;;5103947;27;20547;-77
2023/10/11 02:26:28;;;;;;;2.40;0.98;;;20.50;69.80;;;;;;5091521;28;20133;-77
2023/10/11 02:28:53;;;;;;;1.00;1.00;;;20.40;69.70;;;;;;5094211;28;20568;-77
2023/10/11 02:31:25;;;;;;;1.30;1.20;;;20.50;69.80;;;;;;5096367;28;20122;-77
2023/10/11 02:33:51;;;;;;;0.90;0.90;;;20.40;69.90;;;;;;5070995;28;20724;-77
2023/10/11 02:36:17;;;;;;;1.10;1.10;;;20.50;69.90;;;;;;5091430;28;20055;-77
2023/10/11 02:38:54;;;;;;;1.02;1.02;;;20.50;69.90;;;;;;5100084;28;20130;-77
2023/10/11 02:41:26;;;;;;;1.00;1.00;;;20.50;69.70;;;;;;5094653;28;20118;-78
2023/10/11 02:43:57;;;;;;;1.38;1.08;;;20.50;69.70;;;;;;5093407;28;20032;-77
2023/10/11 02:46:23;;;;;;;1.08;1.08;;;20.50;69.60;;;;;;5090283;28;20061;-78
2023/10/11 02:48:49;;;;;;;0.90;0.90;;;20.50;69.60;;;;;;5086885;28;20510;-78
2023/10/11 02:51:24;;;;;;;1.10;1.10;;;20.50;69.80;;;;;;5084303;28;20055;-78
2023/10/11 02:53:50;;;;;;;1.35;1.25;;;20.50;69.70;;;;;;5095157;28;20049;-78
2023/10/11 02:56:16;;;;;;;0.88;0.88;;;20.50;69.70;;;;;;5098284;28;20429;-78
2023/10/11 02:58:41;;;;;;;0.90;0.90;;;20.50;69.70;;;;;;5095051;28;20035;-77
2023/10/11 03:01:22;;;;;;;1.48;1.20;;;20.40;69.60;;;;;;5090517;28;20122;-77
2023/10/11 03:03:48;;;;;;;1.30;1.20;;;20.50;69.80;;;;;;5084656;28;20603;-77
2023/10/11 03:06:13;;;;;;;1.00;1.00;;;20.50;70.00;;;;;;5090595;28;20124;-77
2023/10/11 03:08:40;;;;;;;1.20;1.10;;;20.50;69.90;;;;;;5095680;28;20198;-77
2023/10/11 03:11:15;;;;;;;1.27;1.20;;;20.50;69.80;;;;;;5093571;28;20073;-77
2023/10/11 03:13:44;;;;;;;1.15;1.15;;;20.40;69.70;;;;;;5089026;28;20083;-78
2023/10/11 03:16:14;;;;;;;1.10;1.10;;;20.50;69.90;;;;;;5092222;28;20043;-78
2023/10/11 03:18:40;;;;;;;1.55;1.42;;;20.50;69.90;;;;;;5087586;28;20044;-77
2023/10/11 03:21:16;;;;;;;1.00;1.00;;;20.50;69.60;;;;;;5092807;28;20173;-78
2023/10/11 03:23:43;;;;;;;1.10;1.10;;;20.50;70.10;;;;;;5087444;28;20713;-78
2023/10/11 03:26:31;;;;;;;1.20;1.20;;;20.50;69.80;;;;;;5090104;28;20593;-78
2023/10/11 03:29:03;;;;;;;1.15;1.15;;;20.50;69.80;;;;;;5084231;28;20040;-77
2023/10/11 03:31:31;;;;;;;1.00;1.00;;;20.40;69.80;;;;;;5089150;28;20411;-77
2023/10/11 03:33:57;;;;;;;1.10;1.10;;;20.40;69.80;;;;;;5081661;28;20039;-77
2023/10/11 03:37:10;;;;;;;1.05;1.05;;;20.50;69.80;;;;;;5087526;28;20047;-78
2023/10/11 03:39:14;;;;;;;1.00;1.00;;;20.40;69.80;;;;;;5083712;28;20064;-77
2023/10/11 03:41:46;;;;;;;1.00;1.00;;;20.40;69.70;;;;;;5095446;28;20056;-77
2023/10/11 03:44:16;;;;;;;1.00;1.00;;;20.50;69.80;;;;;;5090627;28;20095;-77
2023/10/11 03:46:47;;;;;;;1.05;1.05;;;20.40;69.90;;;;;;5083273;28;20795;-77
2023/10/11 03:51:50;;;;;;;1.10;1.00;;;20.40;69.80;;;;;;5081530;28;20040;-77
2023/10/11 03:54:22;;;;;;;0.98;0.98;;;20.40;70.00;;;;;;5088722;28;20269;-77
2023/10/11 03:56:53;;;;;;;0.82;0.80;;;20.40;69.80;;;;;;5090698;28;20036;-77
2023/10/11 03:59:25;;;;;;;0.90;0.90;;;20.40;69.80;;;;;;5091836;28;20039;-77
2023/10/11 04:02:00;;;;;;;1.10;1.10;;;20.40;69.90;;;;;;5095522;28;20049;-77
2023/10/11 04:04:26;;;;;;;1.33;1.10;;;20.40;69.80;;;;;;5087149;28;20032;-77
2023/10/11 04:06:57;;;;;;;1.00;1.00;;;20.40;69.80;;;;;;5082982;28;20047;-77
2023/10/11 04:09:32;;;;;;;1.05;1.05;;;20.40;70.00;;;;;;5091430;28;20047;-78
2023/10/11 04:12:01;;;;;;;1.15;1.15;;;20.40;69.80;;;;;;5094310;28;20085;-77
2023/10/11 04:14:45;;;;;;;1.05;1.05;;;20.40;69.80;;;;;;5089565;28;20044;-78
2023/10/11 04:19:47;;;;;;;1.10;1.10;;;20.40;70.00;;;;;;5084703;28;20036;-78
2023/10/11 04:22:12;;;;;;;1.00;1.00;;;20.40;70.00;;;;;;5090344;28;20048;-77
2023/10/11 04:24:39;;;;;;;1.40;1.33;;;20.40;70.00;;;;;;5085917;28;20042;-77
2023/10/11 04:27:45;;;;;;;1.10;1.10;;;20.40;70.20;;;;;;5094556;28;20522;-77
2023/10/11 04:30:17;;;;;;;1.00;1.00;;;20.40;70.20;;;;;;5083749;28;20045;-77
2023/10/11 04:32:45;;;;;;;1.00;1.00;;;20.40;70.10;;;;;;5086921;28;20051;-77
2023/10/11 04:35:25;;;;;;;1.25;1.25;;;20.40;70.10;;;;;;5093623;28;20047;-77
2023/10/11 04:37:54;;;;;;;0.90;0.90;;;20.40;70.10;;;;;;5075165;28;20123;-77
2023/10/11 04:43:08;;;;;;;0.88;0.88;;;20.40;70.10;;;;;;5088069;28;20048;-77
2023/10/11 04:45:46;;;;;;;1.00;1.00;;;20.40;70.20;;;;;;5092020;28;20134;-77
2023/10/11 04:48:16;;;;;;;1.10;1.10;;;20.40;70.00;;;;;;5093780;28;20047;-77
2023/10/11 04:50:50;;;;;;;1.15;1.15;;;20.40;70.80;;;;;;5083199;28;20040;-78
2023/10/11 04:53:19;;;;;;;1.05;1.05;;;20.40;70.00;;;;;;5095013;28;20236;-77
2023/10/11 04:56:04;;;;;;;1.20;1.20;;;20.40;70.10;;;;;;5089542;28;20120;-77
2023/10/11 05:01:39;;;;;;;1.02;1.02;;;20.40;70.10;;;;;;5073440;28;20525;-77
2023/10/11 05:04:09;;;;;;;1.20;1.20;;;20.40;70.10;;;;;;5081725;28;20252;-77
2023/10/11 05:06:40;;;;;;;1.02;1.02;;;20.40;70.10;;;;;;5097696;28;20524;-77
2023/10/11 05:09:14;;;;;;;0.90;0.90;;;20.40;70.20;;;;;;5090497;28;20497;-77
2023/10/11 05:11:44;;;;;;;1.13;1.13;;;20.40;70.20;;;;;;5094483;28;25506;-78
2023/10/11 05:19:39;;;;;;;1.00;1.00;;;20.40;70.30;;;;;;5088008;28;20039;-80
2023/10/11 05:22:08;;;;;;;0.90;0.90;;;20.40;70.20;;;;;;5095432;28;20531;-77
2023/10/11 05:24:54;;;;;;;1.00;1.00;;;20.40;70.20;;;;;;5082964;28;20044;-77
2023/10/11 05:27:49;;;;;;;0.90;0.90;;;20.40;70.20;;;;;;5094749;28;20067;-77
2023/10/11 05:30:29;;;;;;;0.90;0.90;;;20.40;70.70;;;;;;5090081;28;20040;-77
2023/10/11 05:32:58;;;;;;;1.00;1.00;;;20.40;70.10;;;;;;5081407;28;20067;-78
2023/10/11 05:51:31;;;;;;;0.93;0.93;;;20.40;70.10;;;;;;5089776;28;19926;-78
2023/10/11 05:53:59;;;;;;;0.80;0.80;;;20.40;70.20;;;;;;5086786;28;20037;-78
2023/10/11 05:56:25;;;;;;;0.65;0.65;;;20.30;70.10;;;;;;5071566;28;20142;-77
2023/10/11 05:58:53;;;;;;;1.73;0.70;;;20.30;70.10;;;;;;5090740;28;20126;-79
2023/10/11 06:01:22;;;;;;;0.90;0.90;;;20.40;70.20;;;;;;5084940;28;20040;-79
2023/10/11 06:03:49;;;;;;;1.20;1.20;;;20.40;70.30;;;;;;5086206;28;20119;-78
2023/10/11 06:06:27;;;;;;;2.25;1.33;;;20.40;70.80;;;;;;5093429;28;20113;-79
2023/10/11 06:08:59;;;;;;;1.00;1.00;;;20.40;70.00;;;;;;5091126;28;20381;-80
2023/10/11 06:11:29;;;;;;;1.85;1.48;;;20.40;70.70;;;;;;5098922;28;20048;-80
2023/10/11 06:13:58;;;;;;;2.10;2.00;;;20.30;69.80;;;;;;5090144;28;20049;-77
2023/10/11 06:16:24;;;;;;;2.30;2.20;;;20.20;69.90;;;;;;5089547;28;20139;-78
2023/10/11 06:18:55;;;;;;;2.17;2.08;;;20.10;70.70;;;;;;5063539;28;20398;-79
2023/10/11 06:21:31;;;;;;;2.13;2.03;;;20.10;71.00;;;;;;5089002;28;20150;-79
2023/10/11 06:24:06;;;;;;;1.63;1.60;;;20.20;70.70;;;;;;5089212;28;20051;-79
2023/10/11 06:29:03;;;;;;;1.80;1.70;;;20.30;70.80;;;;;;5089336;28;20043;-80
2023/10/11 06:31:34;;;;;;;1.50;1.40;;;20.30;71.30;;;;;;5106945;27;20047;-80
2023/10/11 06:34:15;;;;;;;1.52;1.52;;;20.30;71.70;;;;;;5096254;27;20039;-79
2023/10/11 06:36:48;;;;;;;1.50;1.40;;;20.30;71.70;;;;;;5099989;27;20027;-79
2023/10/11 06:42:22;;;;;;;2.60;2.50;;;20.30;71.80;;;;;;5079052;28;21558;-78
2023/10/11 06:44:48;;;;;;;8.50;2.90;;;20.30;70.20;;;;;;5088083;28;20048;-77
2023/10/11 06:47:18;;;;;;;4.82;3.10;;;19.90;70.80;;;;;;5092568;28;20067;-77
2023/10/11 06:49:44;;;;;;;5.88;3.33;;;19.80;71.30;;;;;;5088726;28;20043;-75
2023/10/11 06:52:18;;;;;;;3.90;3.47;;;19.70;71.50;;;;;;5098745;27;20046;-75
2023/10/11 06:54:47;;;;;;;4.43;3.58;;;19.30;72.10;;;;;;5074492;28;20063;-74
2023/10/11 06:57:17;;;;;;;4.40;4.18;;;19.20;72.60;;;;;;5095510;28;20039;-74
2023/10/11 06:59:43;;;;;;;5.20;4.80;;;19.30;72.40;;;;;;5093943;28;20040;-74
2023/10/11 07:02:17;;;;;;;5.25;4.95;;;19.40;72.00;;;;;;5082450;28;20055;-74
2023/10/11 07:04:52;;;;;;;4.78;4.47;;;19.50;71.90;;;;;;5081725;28;20028;-75
2023/10/11 07:07:18;;;;;;;5.00;4.55;;;19.50;71.80;;;;;;5085617;28;20469;-75
2023/10/11 07:09:56;;;;;;;5.72;5.38;;;19.60;71.80;;;;;;5069067;28;20076;-75
2023/10/11 07:12:28;;;;;;;5.43;5.13;;;19.50;71.60;;;;;;5094097;28;20028;-75
2023/10/11 07:14:57;;;;;;;5.20;4.90;;;19.40;71.80;;;;;;5088469;28;20367;-76
2023/10/11 07:17:32;;;;;;;4.57;4.28;;;19.50;71.80;;;;;;5083147;28;20031;-75
2023/10/11 07:19:57;;;;;;;4.88;4.57;;;19.60;71.70;;;;;;5096556;28;20422;-75
2023/10/11 07:22:26;;;;;;;4.40;4.20;;;19.70;71.50;;;;;;5093511;28;20165;-75
2023/10/11 07:25:18;;;;;;;4.68;3.47;;;19.70;71.30;;;;;;5090170;28;20098;-75
2023/10/11 07:27:43;;;;;;;4.20;4.00;;;19.80;71.10;;;;;;5093196;28;20048;-75
2023/10/11 07:30:16;;;;;;;3.50;3.30;;;19.80;70.90;;;;;;5097957;28;20118;-75
2023/10/11 07:32:42;;;;;;;3.43;3.17;;;19.90;70.90;;;;;;5087858;28;20075;-75
2023/10/11 07:35:17;;;;;;;4.43;3.53;;;19.90;70.70;;;;;;5097353;28;20096;-74
2023/10/11 07:37:43;;;;;;;3.80;3.60;;;19.90;70.70;;;;;;5094246;28;20071;-75
2023/10/11 07:40:12;;;;;;;3.42;3.28;;;20.00;70.70;;;;;;5088517;28;20461;-75
2023/10/11 07:42:38;;;;;;;3.00;2.80;;;20.00;70.90;;;;;;5092055;28;20048;-75
2023/10/11 07:45:12;;;;;;;2.97;2.78;;;20.00;71.10;;;;;;5097807;28;20136;-75
2023/10/11 07:47:45;;;;;;;3.05;2.88;;;20.00;70.90;;;;;;5101330;28;20574;-75
2023/10/11 07:50:13;;;;;;;2.70;2.60;;;20.00;70.90;;;;;;5101189;28;20048;-74
2023/10/11 07:52:41;;;;;;;2.70;2.60;;;20.00;70.90;;;;;;5094074;28;20108;-75
2023/10/11 07:55:08;;;;;;;2.55;2.33;;;20.00;70.90;;;;;;5087201;28;20378;-75
2023/10/11 07:57:39;;;;;;;2.70;2.60;;;20.00;70.90;;;;;;5092685;28;20067;-75
2023/10/11 08:00:16;;;;;;;2.65;2.55;;;20.00;71.00;;;;;;5094586;28;20047;-75
2023/10/11 08:02:42;;;;;;;2.55;2.42;;;20.00;71.00;;;;;;5092253;28;20472;-75
2023/10/11 08:05:14;;;;;;;2.45;2.35;;;20.00;71.00;;;;;;5094367;28;20138;-75
2023/10/11 08:07:40;;;;;;;2.65;2.55;;;20.10;71.10;;;;;;5096903;28;20059;-75
2023/10/11 08:12:51;;;;;;;2.58;2.40;;;20.00;71.00;;;;;;5094794;28;20050;-75
2023/10/11 08:15:21;;;;;;;2.60;2.50;;;20.00;71.10;;;;;;5090569;28;20107;-75
2023/10/11 08:17:47;;;;;;;2.05;1.95;;;20.00;71.00;;;;;;5094394;28;20068;-75
2023/10/11 08:20:15;;;;;;;2.65;2.45;;;20.10;71.10;;;;;;5100796;28;20094;-74
2023/10/11 08:22:41;;;;;;;1.98;1.88;;;20.10;71.10;;;;;;5089564;28;20052;-75
2023/10/11 08:25:12;;;;;;;2.28;2.17;;;20.10;71.10;;;;;;5092257;28;20501;-75
2023/10/11 08:27:38;;;;;;;1.95;1.85;;;20.10;71.10;;;;;;5095866;28;20766;-75
2023/10/11 08:30:17;;;;;;;2.03;1.92;;;20.10;71.10;;;;;;5094857;28;20048;-75
2023/10/11 08:32:43;;;;;;;2.47;2.38;;;20.10;71.10;;;;;;5100912;28;20131;-75
2023/10/11 08:35:10;;;;;;;2.03;1.92;;;20.10;71.00;;;;;;5107090;28;20131;-75
2023/10/11 08:37:37;;;;;;;1.83;1.73;;;20.10;71.00;;;;;;5099084;28;20035;-75
2023/10/11 08:40:20;;;;;;;2.08;1.98;;;20.10;71.00;;;;;;5097396;28;20036;-75
2023/10/11 08:42:52;;;;;;;2.10;2.00;;;20.10;71.10;;;;;;5096077;28;20518;-75
2023/10/11 08:45:33;;;;;;;2.00;1.90;;;20.10;71.00;;;;;;5100299;28;20086;-75
2023/10/11 08:48:06;;;;;;;1.98;1.88;;;20.10;71.00;;;;;;5111638;27;20102;-75
2023/10/11 08:50:34;;;;;;;1.92;1.83;;;20.10;71.00;;;;;;5102544;28;20178;-75
2023/10/11 08:53:09;;;;;;;1.90;1.80;;;20.20;71.00;;;;;;5099901;28;20107;-75
2023/10/11 08:55:39;;;;;;;2.20;2.10;;;20.10;71.00;;;;;;5093292;28;20535;-75
2023/10/11 08:58:06;;;;;;;2.10;2.00;;;20.10;71.90;;;;;;5093261;28;20047;-75
2023/10/11 09:00:33;;;;;;;1.98;1.88;;;20.20;71.00;;;;;;5099388;28;20040;-75
2023/10/11 09:03:23;;;;;;;2.13;2.03;;;20.20;70.90;;;;;;5096718;28;20044;-75
2023/10/11 09:05:58;;;;;;;1.52;1.52;;;20.20;70.90;;;;;;5096622;28;20037;-75
2023/10/11 09:08:31;;;;;;;2.10;2.00;;;20.20;71.00;;;;;;5103066;28;20039;-75
2023/10/11 09:11:06;;;;;;;1.93;1.83;;;20.20;71.00;;;;;;5097298;28;20598;-75
2023/10/11 09:13:36;;;;;;;2.17;2.08;;;20.20;70.90;;;;;;5093828;28;20054;-75
2023/10/11 09:16:08;;;;;;;1.65;1.63;;;20.20;70.90;;;;;;5088923;28;20039;-75
2023/10/11 09:18:34;;;;;;;1.92;1.83;;;20.20;70.80;;;;;;5095341;28;20036;-75
2023/10/11 09:21:09;;;;;;;2.30;2.20;;;20.30;70.90;;;;;;5097870;28;20049;-75
2023/10/11 09:23:47;;;;;;;1.80;1.70;;;20.20;70.70;;;;;;5098807;28;20428;-75
2023/10/11 09:26:32;;;;;;;1.95;1.88;;;20.20;70.70;;;;;;5104054;28;20028;-75
2023/10/11 09:28:58;;;;;;;2.20;2.10;;;20.20;70.70;;;;;;5098526;28;20039;-75
2023/10/11 09:31:25;;;;;;;2.13;2.03;;;20.20;70.60;;;;;;5099833;28;20036;-75
2023/10/11 09:33:59;;;;;;;1.60;1.60;;;20.20;70.50;;;;;;5101899;28;20618;-75
2023/10/11 09:36:25;;;;;;;;;;;20.30;70.60;;;;;;5096066;28;20483;-75
2023/10/11 09:38:54;;;;;;;1.48;1.48;;;20.30;70.60;;;;;;5098259;28;19932;-75
2023/10/11 09:41:24;;;;;;;1.90;1.80;;;20.30;70.60;;;;;;5097058;28;20050;-75
2023/10/11 09:43:49;;;;;;;2.05;1.95;;;20.30;70.80;;;;;;5101075;28;20024;-75
2023/10/11 09:46:17;;;;;;;1.80;1.70;;;20.20;70.70;;;;;;5094519;28;20093;-75
2023/10/11 09:48:43;;;;;;;2.22;2.03;;;20.30;70.70;;;;;;5098688;28;20047;-75
2023/10/11 09:51:09;;;;;;;1.98;1.88;;;20.30;70.60;;;;;;5098663;28;20044;-75
2023/10/11 09:53:41;;;;;;;2.28;2.17;;;20.30;70.60;;;;;;5082359;28;20032;-75
2023/10/11 09:56:16;;;;;;;1.88;1.77;;;20.30;70.60;;;;;;5105070;28;20030;-75
2023/10/11 09:58:54;;;;;;;1.73;1.73;;;20.30;70.50;;;;;;5068112;28;20019;-75
2023/10/11 10:01:32;;;;;;;1.90;1.80;;;20.30;70.40;;;;;;5069033;28;20142;-75
2023/10/11 10:04:04;;;;;;;1.70;1.70;;;20.30;70.20;;;;;;5063329;28;20048;-75
2023/10/11 10:06:30;;;;;;;1.92;1.83;;;20.30;70.10;;;;;;5099554;28;20028;-75
2023/10/11 10:12:05;;;;;;;1.70;1.60;;;20.40;70.30;;;;;;5065337;28;20106;-78
2023/10/11 10:14:41;;;;;;;2.00;1.90;;;20.40;70.30;;;;;;5097322;28;20080;-77
2023/10/11 10:17:15;;;;;;;1.95;1.85;;;20.40;70.20;;;;;;5098733;28;20455;-77
2023/10/11 10:19:43;;;;;;;2.00;1.90;;;20.40;70.30;;;;;;5096460;28;20439;-77
2023/10/11 10:22:27;;;;;;;1.88;1.80;;;20.40;70.20;;;;;;5089493;28;20054;-77
2023/10/11 10:24:56;;;;;;;1.70;1.60;;;20.40;71.10;;;;;;5092407;28;20035;-77
2023/10/11 10:27:33;;;;;;;2.00;1.90;;;20.40;70.30;;;;;;5096083;28;20055;-77
2023/10/11 10:30:06;;;;;;;2.00;1.90;;;20.40;70.30;;;;;;5095765;28;20052;-77
2023/10/11 10:32:32;;;;;;;1.98;1.88;;;20.40;70.20;;;;;;5080240;28;20043;-77
2023/10/11 10:35:18;;;;;;;2.17;2.08;;;20.40;70.20;;;;;;5100001;28;20466;-77
2023/10/11 10:37:46;;;;;;;1.70;1.58;;;20.40;70.10;;;;;;5099029;28;21451;-77
2023/10/11 10:40:25;;;;;;;1.60;1.60;;;20.40;70.10;;;;;;5090859;28;20088;-77
2023/10/11 10:43:41;;;;;;;1.60;1.60;;;20.50;70.10;;;;;;5095109;28;20416;-78
2023/10/11 10:46:03;;;;;;;1.70;1.60;;;20.50;70.00;;;;;;5081849;28;20044;-77
2023/10/11 10:48:39;;;;;;;1.83;1.73;;;20.40;69.90;;;;;;5050167;28;20090;-77
2023/10/11 10:51:05;;;;;;;1.73;1.65;;;20.50;69.90;;;;;;5080600;28;20047;-77
2023/10/11 10:53:37;;;;;;;1.80;1.70;;;20.40;69.70;;;;;;5097162;28;20401;-77
2023/10/11 10:56:03;;;;;;;1.45;1.45;;;20.50;69.70;;;;;;5095292;28;20114;-77
2023/10/11 10:58:28;;;;;;;1.52;1.52;;;20.50;69.70;;;;;;5076412;28;20145;-77
2023/10/11 11:00:54;;;;;;;1.40;1.40;;;20.50;69.60;;;;;;5092576;28;20032;-77
2023/10/11 11:03:21;;;;;;;1.65;1.55;;;20.50;69.60;;;;;;5098604;28;20052;-77
2023/10/11 11:05:57;;;;;;;1.63;1.60;;;20.50;69.50;;;;;;5098435;28;20516;-77
2023/10/11 11:08:31;;;;;;;1.63;1.63;;;20.50;69.60;;;;;;5091568;28;20040;-77
2023/10/11 11:11:19;;;;;;;1.23;1.23;;;20.50;69.50;;;;;;5098779;28;20050;-77
2023/10/11 11:13:48;;;;;;;1.30;1.30;;;20.50;69.50;;;;;;5094823;28;20485;-77
2023/10/11 11:16:26;;;;;;;1.80;1.70;;;20.60;69.60;;;;;;5075161;28;20500;-78
2023/10/11 11:18:52;;;;;;;1.90;1.80;;;20.50;69.60;;;;;;5092835;28;20047;-77
2023/10/11 11:21:19;;;;;;;1.48;1.48;;;20.60;69.60;;;;;;5093250;28;20471;-77
2023/10/11 11:23:46;;;;;;;1.77;1.67;;;20.60;69.60;;;;;;5097836;28;20048;-77
2023/10/11 11:26:18;;;;;;;1.95;1.85;;;20.60;69.70;;;;;;5100444;28;20104;-77
2023/10/11 11:28:44;;;;;;;1.50;1.48;;;20.60;69.80;;;;;;5087765;28;20092;-77
2023/10/11 11:31:13;;;;;;;1.50;1.50;;;20.60;69.70;;;;;;5098168;28;20042;-77
2023/10/11 11:33:48;;;;;;;2.10;2.00;;;20.60;69.60;;;;;;5095767;28;20100;-77
2023/10/11 11:36:30;;;;;;;2.17;2.08;;;20.60;69.70;;;;;;5088709;28;20047;-77
2023/10/11 11:39:17;;;;;;;2.30;2.10;;;20.60;69.80;;;;;;5081433;28;20053;-77
2023/10/11 11:41:57;;;;;;;2.20;2.10;;;20.60;69.60;;;;;;5089339;28;20047;-77
2023/10/11 11:44:23;;;;;;;2.10;2.00;;;20.60;69.50;;;;;;5090612;28;20046;-77
2023/10/11 11:46:52;;;;;;;2.03;1.92;;;20.60;69.50;;;;;;5090210;28;20409;-77
2023/10/11 11:49:29;;;;;;;1.65;1.55;;;20.60;69.50;;;;;;5091229;28;20047;-77
2023/10/11 11:51:57;;;;;;;1.63;1.63;;;20.60;69.50;;;;;;5085507;28;20393;-77
2023/10/11 11:54:27;;;;;;;1.90;1.80;;;20.60;69.50;;;;;;5093492;28;20023;-77
2023/10/11 11:56:54;;;;;;;2.10;2.00;;;20.70;69.40;;;;;;5076362;28;20056;-77
2023/10/11 11:59:20;;;;;;;2.10;1.98;;;20.70;69.30;;;;;;5097146;28;20112;-76
2023/10/11 12:01:52;;;;;;;1.58;1.48;;;20.70;69.30;;;;;;5094123;28;20076;-76
2023/10/11 12:04:22;;;;;;;1.90;1.80;;;20.70;69.20;;;;;;5094702;28;20044;-76
2023/10/11 12:06:48;;;;;;;1.45;1.45;;;20.70;69.80;;;;;;5096641;28;20044;-76
2023/10/11 12:09:24;;;;;;;1.80;1.70;;;20.70;69.60;;;;;;5094471;28;20020;-76
2023/10/11 12:11:50;;;;;;;1.77;1.73;;;20.70;69.70;;;;;;5087158;28;20044;-76
2023/10/11 12:14:16;;;;;;;1.55;1.50;;;20.70;69.70;;;;;;5097803;28;20046;-76
2023/10/11 12:16:42;;;;;;;1.90;1.80;;;20.70;69.80;;;;;;5095837;28;20044;-76
2023/10/11 12:19:12;;;;;;;1.80;1.70;;;20.70;70.60;;;;;;5096358;28;20040;-76
2023/10/11 12:21:38;;;;;;;2.25;2.15;;;20.70;69.70;;;;;;5089164;28;20060;-76
2023/10/11 12:24:10;;;;;;;1.80;1.70;;;20.70;69.80;;;;;;5095098;28;20135;-76
2023/10/11 12:26:40;;;;;;;1.92;1.83;;;20.70;70.00;;;;;;5093750;28;20043;-76
2023/10/11 12:29:18;;;;;;;1.58;1.55;;;20.70;70.00;;;;;;5096977;28;20032;-76
2023/10/11 12:31:43;;;;;;;1.92;1.83;;;20.70;69.90;;;;;;5096723;28;20055;-76
2023/10/11 12:34:09;;;;;;;1.70;1.60;;;20.70;69.90;;;;;;5094919;28;20052;-76
2023/10/11 12:36:38;;;;;;;1.60;1.60;;;20.70;70.00;;;;;;5094115;28;20509;-76
2023/10/11 12:39:08;;;;;;;1.27;1.25;;;20.70;69.90;;;;;;5094386;28;20405;-76
2023/10/11 12:41:36;;;;;;;1.55;1.55;;;20.70;69.90;;;;;;5098672;28;20039;-76
2023/10/11 12:44:03;;;;;;;1.88;1.77;;;20.70;69.80;;;;;;5093299;28;20040;-76
2023/10/11 12:46:28;;;;;;;1.98;1.88;;;20.70;69.90;;;;;;5095622;28;20414;-76
2023/10/11 12:48:56;;;;;;;1.42;1.42;;;20.70;69.70;;;;;;5090360;28;20047;-76
2023/10/11 12:51:23;;;;;;;1.48;1.48;;;20.70;69.90;;;;;;5095822;28;20048;-76
2023/10/11 12:53:49;;;;;;;1.60;1.50;;;20.70;69.80;;;;;;5094111;28;20032;-76
2023/10/11 12:56:14;;;;;;;1.40;1.40;;;20.70;70.50;;;;;;5098628;28;20051;-76
2023/10/11 12:58:40;;;;;;;1.45;1.45;;;20.70;69.60;;;;;;5095286;28;20044;-76
2023/10/11 13:01:11;;;;;;;1.50;1.50;;;20.70;69.70;;;;;;5079299;28;20516;-76
2023/10/11 13:03:38;;;;;;;1.63;1.63;;;20.70;69.60;;;;;;5077638;28;20385;-76
2023/10/11 13:06:04;;;;;;;1.27;1.27;;;20.70;69.70;;;;;;5092482;28;20157;-76
2023/10/11 13:08:32;;;;;;;1.48;1.48;;;20.70;69.70;;;;;;5097531;28;20046;-76
2023/10/11 13:11:00;;;;;;;1.52;1.52;;;20.80;69.80;;;;;;5094313;28;20486;-76
2023/10/11 13:13:27;;;;;;;1.23;1.23;;;20.80;69.70;;;;;;5088019;28;20504;-76
2023/10/11 13:15:59;;;;;;;1.83;1.73;;;20.80;69.50;;;;;;5102934;28;20040;-76
2023/10/11 13:18:31;;;;;;;1.40;1.40;;;20.80;69.40;;;;;;5089629;28;20501;-76
2023/10/11 13:20:56;;;;;;;1.75;1.42;;;20.80;69.40;;;;;;5096672;28;20905;-76
2023/10/11 13:23:32;;;;;;;1.30;1.30;;;20.80;69.40;;;;;;5100533;28;20474;-76
2023/10/11 13:26:00;;;;;;;1.50;1.40;;;20.80;69.30;;;;;;5082414;28;20049;-76
2023/10/11 13:28:27;;;;;;;1.63;1.52;;;20.80;69.30;;;;;;5096878;28;20493;-76
2023/10/11 13:30:54;;;;;;;1.50;1.40;;;20.80;69.30;;;;;;5097166;28;20048;-76
2023/10/11 13:33:20;;;;;;;1.60;1.55;;;20.80;69.20;;;;;;5102174;28;20097;-76
2023/10/11 13:35:47;;;;;;;1.70;1.60;;;20.80;69.20;;;;;;5100305;28;20044;-76
2023/10/11 13:38:17;;;;;;;1.50;1.50;;;20.80;69.10;;;;;;5100208;28;20039;-76
2023/10/11 13:40:44;;;;;;;1.65;1.58;;;20.80;70.00;;;;;;5094743;28;20135;-76
2023/10/11 13:43:10;;;;;;;1.55;1.55;;;20.80;69.10;;;;;;5096198;28;20749;-76
2023/10/11 13:45:42;;;;;;;1.90;1.80;;;20.80;69.00;;;;;;5094688;28;20050;-76
2023/10/11 13:48:13;;;;;;;1.65;1.55;;;20.80;69.00;;;;;;5093834;28;20048;-76